sensor_id;sensor_type;location;lat;lon;timestamp;pressure;altitude;pressure_sealevel;temperature;humidity
6096;BME280;25081;42.698;23.298;2023-11-19T00:00:52;95246.73;;;3.12;79.21
6096;BME280;25081;42.698;23.298;2023-11-19T00:03:03;95242.78;;;3.12;78.73
6096;BME280;25081;42.698;23.298;2023-11-19T00:05:14;95261.40;;;3.10;78.79
6096;BME280;25081;42.698;23.298;2023-11-19T00:07:24;95265.52;;;3.09;79.12
6096;BME280;25081;42.698;23.298;2023-11-19T00:09:35;95260.08;;;3.06;78.79
6096;BME280;25081;42.698;23.298;2023-11-19T00:11:46;95258.19;;;2.88;79.03
6096;BME280;25081;42.698;23.298;2023-11-19T00:13:56;95251.55;;;3.04;78.79
6096;BME280;25081;42.698;23.298;2023-11-19T00:16:08;95254.14;;;3.08;78.52
6096;BME280;25081;42.698;23.298;2023-11-19T00:18:19;95250.91;;;2.98;78.76
6096;BME280;25081;42.698;23.298;2023-11-19T00:20:30;95258.51;;;2.89;79.14
6096;BME280;25081;42.698;23.298;2023-11-19T00:22:40;95264.24;;;2.97;78.81
6096;BME280;25081;42.698;23.298;2023-11-19T00:24:51;95258.98;;;3.01;78.72
6096;BME280;25081;42.698;23.298;2023-11-19T00:27:02;95262.39;;;3.09;78.81
6096;BME280;25081;42.698;23.298;2023-11-19T00:29:12;95258.66;;;3.00;78.43
6096;BME280;25081;42.698;23.298;2023-11-19T00:31:23;95251.40;;;2.98;78.48
6096;BME280;25081;42.698;23.298;2023-11-19T00:33:34;95256.02;;;3.00;78.50
6096;BME280;25081;42.698;23.298;2023-11-19T00:35:44;95248.91;;;3.04;78.62
6096;BME280;25081;42.698;23.298;2023-11-19T00:37:55;95252.07;;;2.96;78.86
6096;BME280;25081;42.698;23.298;2023-11-19T00:40:08;95258.13;;;3.04;78.77
6096;BME280;25081;42.698;23.298;2023-11-19T00:42:18;95265.94;;;2.90;79.24
6096;BME280;25081;42.698;23.298;2023-11-19T00:44:29;95266.06;;;2.96;79.11
6096;BME280;25081;42.698;23.298;2023-11-19T00:46:39;95260.61;;;2.98;79.21
6096;BME280;25081;42.698;23.298;2023-11-19T00:48:50;95266.55;;;3.00;78.78
6096;BME280;25081;42.698;23.298;2023-11-19T00:51:00;95260.94;;;2.99;78.79
6096;BME280;25081;42.698;23.298;2023-11-19T00:53:11;95266.91;;;2.93;78.86
6096;BME280;25081;42.698;23.298;2023-11-19T00:55:21;95268.40;;;2.91;78.83
6096;BME280;25081;42.698;23.298;2023-11-19T00:57:32;95264.06;;;2.98;79.00
6096;BME280;25081;42.698;23.298;2023-11-19T00:59:43;95264.62;;;2.85;79.09
6096;BME280;25081;42.698;23.298;2023-11-19T01:01:54;95275.80;;;2.87;79.56
6096;BME280;25081;42.698;23.298;2023-11-19T01:04:05;95261.99;;;2.85;79.71
6096;BME280;25081;42.698;23.298;2023-11-19T01:06:16;95262.46;;;2.93;79.41
6096;BME280;25081;42.698;23.298;2023-11-19T01:08:26;95266.41;;;2.89;79.53
6096;BME280;25081;42.698;23.298;2023-11-19T01:10:38;95261.00;;;2.86;79.93
6096;BME280;25081;42.698;23.298;2023-11-19T01:12:49;95260.87;;;2.76;79.87
6096;BME280;25081;42.698;23.298;2023-11-19T01:15:00;95272.17;;;2.88;79.47
6096;BME280;25081;42.698;23.298;2023-11-19T01:17:10;95272.70;;;2.84;79.60
6096;BME280;25081;42.698;23.298;2023-11-19T01:19:21;95286.16;;;2.93;79.45
6096;BME280;25081;42.698;23.298;2023-11-19T01:21:31;95272.72;;;3.19;78.75
6096;BME280;25081;42.698;23.298;2023-11-19T01:23:42;95267.48;;;3.07;78.50
6096;BME280;25081;42.698;23.298;2023-11-19T01:25:53;95270.70;;;2.86;78.96
6096;BME280;25081;42.698;23.298;2023-11-19T01:28:04;95275.80;;;2.87;79.38
6096;BME280;25081;42.698;23.298;2023-11-19T01:30:15;95266.23;;;2.95;78.95
6096;BME280;25081;42.698;23.298;2023-11-19T01:32:26;95265.20;;;3.04;78.82
6096;BME280;25081;42.698;23.298;2023-11-19T01:34:36;95271.20;;;2.85;79.28
6096;BME280;25081;42.698;23.298;2023-11-19T01:36:47;95274.13;;;2.95;78.36
6096;BME280;25081;42.698;23.298;2023-11-19T01:38:58;95279.77;;;2.79;78.76
6096;BME280;25081;42.698;23.298;2023-11-19T01:41:09;95277.94;;;2.92;78.66
6096;BME280;25081;42.698;23.298;2023-11-19T01:43:34;95278.44;;;2.92;78.23
6096;BME280;25081;42.698;23.298;2023-11-19T01:45:44;95283.37;;;2.86;78.68
6096;BME280;25081;42.698;23.298;2023-11-19T01:47:55;95271.03;;;2.87;78.16
6096;BME280;25081;42.698;23.298;2023-11-19T01:50:07;95276.20;;;2.72;78.52
6096;BME280;25081;42.698;23.298;2023-11-19T01:52:18;95296.25;;;2.69;78.39
6096;BME280;25081;42.698;23.298;2023-11-19T01:54:28;95285.70;;;2.77;78.21
6096;BME280;25081;42.698;23.298;2023-11-19T01:56:39;95293.30;;;2.68;78.12
6096;BME280;25081;42.698;23.298;2023-11-19T01:58:50;95301.55;;;2.65;78.07
6096;BME280;25081;42.698;23.298;2023-11-19T02:01:01;95305.84;;;2.62;77.78
6096;BME280;25081;42.698;23.298;2023-11-19T02:03:12;95309.12;;;2.64;77.47
6096;BME280;25081;42.698;23.298;2023-11-19T02:05:22;95315.52;;;2.66;77.59
6096;BME280;25081;42.698;23.298;2023-11-19T02:07:33;95303.68;;;2.66;77.45
6096;BME280;25081;42.698;23.298;2023-11-19T02:09:44;95296.75;;;2.69;77.51
6096;BME280;25081;42.698;23.298;2023-11-19T02:11:55;95292.01;;;2.64;77.53
6096;BME280;25081;42.698;23.298;2023-11-19T02:14:06;95289.04;;;2.71;77.53
6096;BME280;25081;42.698;23.298;2023-11-19T02:16:17;95290.34;;;2.67;77.46
6096;BME280;25081;42.698;23.298;2023-11-19T02:18:27;95293.16;;;2.66;77.46
6096;BME280;25081;42.698;23.298;2023-11-19T02:20:38;95295.95;;;2.64;77.55
6096;BME280;25081;42.698;23.298;2023-11-19T02:22:48;95287.91;;;2.62;77.83
6096;BME280;25081;42.698;23.298;2023-11-19T02:24:59;95292.04;;;2.48;78.14
6096;BME280;25081;42.698;23.298;2023-11-19T02:27:10;95284.45;;;2.57;78.03
6096;BME280;25081;42.698;23.298;2023-11-19T02:29:20;95286.93;;;2.50;78.20
6096;BME280;25081;42.698;23.298;2023-11-19T02:31:30;95285.16;;;2.43;78.45
6096;BME280;25081;42.698;23.298;2023-11-19T02:33:41;95285.00;;;2.36;78.52
6096;BME280;25081;42.698;23.298;2023-11-19T02:35:51;95280.06;;;2.37;78.54
6096;BME280;25081;42.698;23.298;2023-11-19T02:38:02;95266.93;;;2.33;78.66
6096;BME280;25081;42.698;23.298;2023-11-19T02:40:13;95262.64;;;2.36;79.17
6096;BME280;25081;42.698;23.298;2023-11-19T02:42:23;95269.74;;;2.23;79.30
6096;BME280;25081;42.698;23.298;2023-11-19T02:44:34;95290.77;;;2.19;79.43
6096;BME280;25081;42.698;23.298;2023-11-19T02:46:44;95278.45;;;2.24;79.14
6096;BME280;25081;42.698;23.298;2023-11-19T02:48:55;95272.20;;;2.17;79.48
6096;BME280;25081;42.698;23.298;2023-11-19T02:51:06;95289.30;;;2.09;79.84
6096;BME280;25081;42.698;23.298;2023-11-19T02:53:18;95294.56;;;2.17;79.77
6096;BME280;25081;42.698;23.298;2023-11-19T02:55:28;95282.23;;;2.09;80.27
6096;BME280;25081;42.698;23.298;2023-11-19T02:57:39;95282.73;;;2.09;80.44
6096;BME280;25081;42.698;23.298;2023-11-19T02:59:50;95284.36;;;2.01;80.33
6096;BME280;25081;42.698;23.298;2023-11-19T03:02:01;95282.25;;;2.05;80.56
6096;BME280;25081;42.698;23.298;2023-11-19T03:04:11;95292.25;;;2.01;80.52
6096;BME280;25081;42.698;23.298;2023-11-19T03:06:22;95288.48;;;2.00;80.34
6096;BME280;25081;42.698;23.298;2023-11-19T03:08:32;95286.19;;;2.05;80.13
6096;BME280;25081;42.698;23.298;2023-11-19T03:10:43;95284.21;;;2.07;79.98
6096;BME280;25081;42.698;23.298;2023-11-19T03:12:54;95297.19;;;2.00;80.12
6096;BME280;25081;42.698;23.298;2023-11-19T03:15:07;95300.97;;;1.98;80.33
6096;BME280;25081;42.698;23.298;2023-11-19T03:17:18;95309.36;;;2.06;80.21
6096;BME280;25081;42.698;23.298;2023-11-19T03:19:28;95307.53;;;2.02;80.00
6096;BME280;25081;42.698;23.298;2023-11-19T03:21:39;95303.93;;;2.07;80.08
6096;BME280;25081;42.698;23.298;2023-11-19T03:23:50;95303.95;;;2.03;80.29
6096;BME280;25081;42.698;23.298;2023-11-19T03:26:00;95300.16;;;2.06;80.13
6096;BME280;25081;42.698;23.298;2023-11-19T03:28:11;95301.13;;;2.09;80.11
6096;BME280;25081;42.698;23.298;2023-11-19T03:30:22;95293.41;;;2.07;80.09
6096;BME280;25081;42.698;23.298;2023-11-19T03:32:33;95297.03;;;2.06;80.18
6096;BME280;25081;42.698;23.298;2023-11-19T03:34:44;95302.11;;;2.12;79.92
6096;BME280;25081;42.698;23.298;2023-11-19T03:36:54;95297.84;;;2.11;80.26
6096;BME280;25081;42.698;23.298;2023-11-19T03:39:05;95291.28;;;2.07;79.84
6096;BME280;25081;42.698;23.298;2023-11-19T03:41:15;95306.06;;;2.08;80.01
6096;BME280;25081;42.698;23.298;2023-11-19T03:43:26;95311.65;;;2.09;80.02
6096;BME280;25081;42.698;23.298;2023-11-19T03:45:36;95315.44;;;2.06;80.15
6096;BME280;25081;42.698;23.298;2023-11-19T03:47:47;95317.91;;;2.04;80.17
6096;BME280;25081;42.698;23.298;2023-11-19T03:49:58;95322.33;;;1.99;80.23
6096;BME280;25081;42.698;23.298;2023-11-19T03:52:09;95326.95;;;2.05;79.98
6096;BME280;25081;42.698;23.298;2023-11-19T03:54:19;95334.81;;;2.09;79.85
6096;BME280;25081;42.698;23.298;2023-11-19T03:56:30;95329.88;;;2.10;79.93
6096;BME280;25081;42.698;23.298;2023-11-19T03:58:41;95327.92;;;2.08;79.89
6096;BME280;25081;42.698;23.298;2023-11-19T04:00:51;95337.94;;;2.09;79.84
6096;BME280;25081;42.698;23.298;2023-11-19T04:03:02;95340.23;;;2.20;79.18
6096;BME280;25081;42.698;23.298;2023-11-19T04:05:13;95339.44;;;2.23;79.23
6096;BME280;25081;42.698;23.298;2023-11-19T04:07:23;95341.57;;;2.32;79.17
6096;BME280;25081;42.698;23.298;2023-11-19T04:09:33;95346.64;;;2.38;79.06
6096;BME280;25081;42.698;23.298;2023-11-19T04:11:44;95346.30;;;2.49;78.61
6096;BME280;25081;42.698;23.298;2023-11-19T04:13:55;95354.86;;;2.47;78.45
6096;BME280;25081;42.698;23.298;2023-11-19T04:16:07;95367.52;;;2.39;78.39
6096;BME280;25081;42.698;23.298;2023-11-19T04:18:18;95367.20;;;2.42;78.18
6096;BME280;25081;42.698;23.298;2023-11-19T04:20:28;95365.38;;;2.47;78.16
6096;BME280;25081;42.698;23.298;2023-11-19T04:22:39;95374.76;;;2.45;78.11
6096;BME280;25081;42.698;23.298;2023-11-19T04:24:49;95369.67;;;2.52;78.09
6096;BME280;25081;42.698;23.298;2023-11-19T04:27:00;95364.91;;;2.51;78.06
6096;BME280;25081;42.698;23.298;2023-11-19T04:29:11;95363.08;;;2.48;78.05
6096;BME280;25081;42.698;23.298;2023-11-19T04:31:21;95357.14;;;2.58;77.86
6096;BME280;25081;42.698;23.298;2023-11-19T04:33:32;95355.52;;;2.53;78.12
6096;BME280;25081;42.698;23.298;2023-11-19T04:35:42;95357.31;;;2.56;77.93
6096;BME280;25081;42.698;23.298;2023-11-19T04:37:53;95367.68;;;2.62;77.59
6096;BME280;25081;42.698;23.298;2023-11-19T04:40:04;95371.31;;;2.53;77.78
6096;BME280;25081;42.698;23.298;2023-11-19T04:42:15;95366.22;;;2.51;77.92
6096;BME280;25081;42.698;23.298;2023-11-19T04:44:26;95376.08;;;2.53;77.92
6096;BME280;25081;42.698;23.298;2023-11-19T04:46:37;95375.56;;;2.50;77.75
6096;BME280;25081;42.698;23.298;2023-11-19T04:48:47;95366.52;;;2.56;77.63
6096;BME280;25081;42.698;23.298;2023-11-19T04:50:57;95366.22;;;2.51;77.73
6096;BME280;25081;42.698;23.298;2023-11-19T04:53:08;95371.95;;;2.63;77.20
6096;BME280;25081;42.698;23.298;2023-11-19T04:55:19;95369.81;;;2.63;77.25
6096;BME280;25081;42.698;23.298;2023-11-19T04:57:29;95373.25;;;2.59;77.35
6096;BME280;25081;42.698;23.298;2023-11-19T04:59:39;95372.45;;;2.63;77.24
6096;BME280;25081;42.698;23.298;2023-11-19T05:01:50;95375.25;;;2.53;77.64
6096;BME280;25081;42.698;23.298;2023-11-19T05:04:01;95380.83;;;2.58;77.35
6096;BME280;25081;42.698;23.298;2023-11-19T05:06:11;95387.08;;;2.49;77.78
6096;BME280;25081;42.698;23.298;2023-11-19T05:08:22;95392.68;;;2.62;77.66
6096;BME280;25081;42.698;23.298;2023-11-19T05:10:32;95401.23;;;2.56;77.23
6096;BME280;25081;42.698;23.298;2023-11-19T05:12:43;95407.33;;;2.61;77.38
6096;BME280;25081;42.698;23.298;2023-11-19T05:14:53;95403.19;;;2.66;76.69
6096;BME280;25081;42.698;23.298;2023-11-19T05:17:04;95401.55;;;2.65;76.70
6096;BME280;25081;42.698;23.298;2023-11-19T05:19:15;95395.30;;;2.66;76.89
6096;BME280;25081;42.698;23.298;2023-11-19T05:21:26;95392.34;;;2.65;76.90
6096;BME280;25081;42.698;23.298;2023-11-19T05:23:36;95390.55;;;2.45;77.36
6096;BME280;25081;42.698;23.298;2023-11-19T05:25:47;95388.23;;;2.58;76.91
6096;BME280;25081;42.698;23.298;2023-11-19T05:27:57;95391.50;;;2.69;76.39
6096;BME280;25081;42.698;23.298;2023-11-19T05:30:09;95386.41;;;2.51;76.84
6096;BME280;25081;42.698;23.298;2023-11-19T05:32:20;95386.41;;;2.59;76.71
6096;BME280;25081;42.698;23.298;2023-11-19T05:34:30;95394.97;;;2.57;76.92
6096;BME280;25081;42.698;23.298;2023-11-19T05:36:41;95393.35;;;2.52;77.01
6096;BME280;25081;42.698;23.298;2023-11-19T05:38:51;95397.28;;;2.56;77.38
6096;BME280;25081;42.698;23.298;2023-11-19T05:41:02;95390.37;;;2.39;77.16
6096;BME280;25081;42.698;23.298;2023-11-19T05:43:12;95399.27;;;2.54;76.96
6096;BME280;25081;42.698;23.298;2023-11-19T05:45:23;95402.23;;;2.43;76.95
6096;BME280;25081;42.698;23.298;2023-11-19T05:47:33;95404.37;;;2.51;76.69
6096;BME280;25081;42.698;23.298;2023-11-19T05:49:44;95414.72;;;2.53;76.77
6096;BME280;25081;42.698;23.298;2023-11-19T05:51:54;95409.78;;;2.62;76.68
6096;BME280;25081;42.698;23.298;2023-11-19T05:54:06;95407.65;;;2.62;76.46
6096;BME280;25081;42.698;23.298;2023-11-19T05:56:16;95405.16;;;2.60;76.29
6096;BME280;25081;42.698;23.298;2023-11-19T05:58:27;95410.91;;;2.68;76.27
6096;BME280;25081;42.698;23.298;2023-11-19T06:00:38;95416.53;;;2.52;76.96
6096;BME280;25081;42.698;23.298;2023-11-19T06:02:48;95413.22;;;2.58;76.80
6096;BME280;25081;42.698;23.298;2023-11-19T06:04:59;95425.75;;;2.52;76.79
6096;BME280;25081;42.698;23.298;2023-11-19T06:07:09;95425.08;;;2.63;76.65
6096;BME280;25081;42.698;23.298;2023-11-19T06:09:20;95436.26;;;2.65;77.01
6096;BME280;25081;42.698;23.298;2023-11-19T06:11:30;95432.48;;;2.63;77.08
6096;BME280;25081;42.698;23.298;2023-11-19T06:13:41;95434.28;;;2.46;77.21
6096;BME280;25081;42.698;23.298;2023-11-19T06:15:53;95426.38;;;2.50;77.13
6096;BME280;25081;42.698;23.298;2023-11-19T06:18:04;95427.86;;;2.49;77.42
6096;BME280;25081;42.698;23.298;2023-11-19T06:20:14;95425.88;;;2.51;77.64
6096;BME280;25081;42.698;23.298;2023-11-19T06:22:25;95433.28;;;2.39;77.51
6096;BME280;25081;42.698;23.298;2023-11-19T06:24:35;95428.52;;;2.59;77.02
6096;BME280;25081;42.698;23.298;2023-11-19T06:26:46;95427.55;;;2.56;77.05
6096;BME280;25081;42.698;23.298;2023-11-19T06:28:56;95440.53;;;2.66;77.05
6096;BME280;25081;42.698;23.298;2023-11-19T06:31:07;95434.60;;;2.59;77.23
6096;BME280;25081;42.698;23.298;2023-11-19T06:33:17;95435.28;;;2.53;77.29
6096;BME280;25081;42.698;23.298;2023-11-19T06:35:28;95434.30;;;2.71;76.84
6096;BME280;25081;42.698;23.298;2023-11-19T06:37:40;95430.02;;;2.62;76.96
6096;BME280;25081;42.698;23.298;2023-11-19T06:39:51;95432.64;;;2.74;76.41
6096;BME280;25081;42.698;23.298;2023-11-19T06:42:01;95442.02;;;2.72;76.27
6096;BME280;25081;42.698;23.298;2023-11-19T06:44:12;95439.22;;;2.66;76.65
6096;BME280;25081;42.698;23.298;2023-11-19T06:46:22;95440.53;;;2.66;76.50
6096;BME280;25081;42.698;23.298;2023-11-19T06:48:33;95437.58;;;2.73;76.06
6096;BME280;25081;42.698;23.298;2023-11-19T06:50:43;95440.69;;;2.68;76.55
6096;BME280;25081;42.698;23.298;2023-11-19T06:52:54;95446.13;;;2.75;75.76
6096;BME280;25081;42.698;23.298;2023-11-19T06:55:06;95437.89;;;2.57;76.34
6096;BME280;25081;42.698;23.298;2023-11-19T06:57:16;95434.62;;;2.64;75.64
6096;BME280;25081;42.698;23.298;2023-11-19T06:59:27;95443.66;;;2.57;75.78
6096;BME280;25081;42.698;23.298;2023-11-19T07:01:37;95425.73;;;2.65;75.52
6096;BME280;25081;42.698;23.298;2023-11-19T07:03:48;95440.36;;;2.67;75.49
6096;BME280;25081;42.698;23.298;2023-11-19T07:05:58;95442.52;;;2.64;75.27
6096;BME280;25081;42.698;23.298;2023-11-19T07:08:09;95439.88;;;2.72;75.27
6096;BME280;25081;42.698;23.298;2023-11-19T07:10:19;95444.80;;;2.83;75.31
6096;BME280;25081;42.698;23.298;2023-11-19T07:12:30;95455.02;;;2.82;75.19
6096;BME280;25081;42.698;23.298;2023-11-19T07:14:40;95454.19;;;2.73;74.63
6096;BME280;25081;42.698;23.298;2023-11-19T07:16:51;95449.43;;;2.61;74.88
6096;BME280;25081;42.698;23.298;2023-11-19T07:19:01;95445.64;;;2.63;75.10
6096;BME280;25081;42.698;23.298;2023-11-19T07:21:12;95445.63;;;2.59;74.93
6096;BME280;25081;42.698;23.298;2023-11-19T07:23:23;95447.09;;;2.70;75.00
6096;BME280;25081;42.698;23.298;2023-11-19T07:25:33;95450.41;;;2.80;75.00
6096;BME280;25081;42.698;23.298;2023-11-19T07:27:44;95449.25;;;2.66;75.24
6096;BME280;25081;42.698;23.298;2023-11-19T07:29:54;95456.66;;;2.75;74.76
6096;BME280;25081;42.698;23.298;2023-11-19T07:32:06;95452.19;;;2.96;73.52
6096;BME280;25081;42.698;23.298;2023-11-19T07:34:17;95468.84;;;2.72;73.78
6096;BME280;25081;42.698;23.298;2023-11-19T07:36:27;95466.86;;;2.74;74.24
6096;BME280;25081;42.698;23.298;2023-11-19T07:38:37;95474.41;;;2.93;73.19
6096;BME280;25081;42.698;23.298;2023-11-19T07:40:48;95475.39;;;2.88;73.37
6096;BME280;25081;42.698;23.298;2023-11-19T07:42:59;95464.38;;;2.93;73.60
6096;BME280;25081;42.698;23.298;2023-11-19T07:45:10;95475.38;;;3.12;73.10
6096;BME280;25081;42.698;23.298;2023-11-19T07:47:21;95484.13;;;3.09;72.46
6096;BME280;25081;42.698;23.298;2023-11-19T07:49:31;95468.42;;;3.32;71.66
6096;BME280;25081;42.698;23.298;2023-11-19T07:51:42;95461.53;;;3.23;71.34
6096;BME280;25081;42.698;23.298;2023-11-19T07:53:52;95475.53;;;3.15;71.84
6096;BME280;25081;42.698;23.298;2023-11-19T07:56:04;95475.14;;;3.42;71.31
6096;BME280;25081;42.698;23.298;2023-11-19T07:58:14;95474.66;;;3.35;71.24
6096;BME280;25081;42.698;23.298;2023-11-19T08:00:25;95475.14;;;3.42;70.99
6096;BME280;25081;42.698;23.298;2023-11-19T08:02:35;95478.84;;;3.77;70.22
6096;BME280;25081;42.698;23.298;2023-11-19T08:04:46;95478.09;;;3.52;70.35
6096;BME280;25081;42.698;23.298;2023-11-19T08:06:56;95477.76;;;3.47;70.12
6096;BME280;25081;42.698;23.298;2023-11-19T08:09:07;95496.44;;;3.76;69.75
6096;BME280;25081;42.698;23.298;2023-11-19T08:11:18;95486.80;;;3.99;69.32
6096;BME280;25081;42.698;23.298;2023-11-19T08:13:29;95491.77;;;3.51;69.90
6096;BME280;25081;42.698;23.298;2023-11-19T08:15:40;95489.97;;;3.48;70.60
6096;BME280;25081;42.698;23.298;2023-11-19T08:17:50;95493.21;;;3.62;70.08
6096;BME280;25081;42.698;23.298;2023-11-19T08:20:01;95503.10;;;3.56;70.29
6096;BME280;25081;42.698;23.298;2023-11-19T08:22:12;95496.82;;;3.69;70.22
6096;BME280;25081;42.698;23.298;2023-11-19T08:24:23;95502.11;;;3.61;70.19
6096;BME280;25081;42.698;23.298;2023-11-19T08:26:33;95494.25;;;3.49;70.81
6096;BME280;25081;42.698;23.298;2023-11-19T08:28:44;95504.48;;;3.31;70.95
6096;BME280;25081;42.698;23.298;2023-11-19T08:30:54;95508.80;;;3.12;71.68
6096;BME280;25081;42.698;23.298;2023-11-19T08:33:05;95509.61;;;3.08;71.80
6096;BME280;25081;42.698;23.298;2023-11-19T08:35:16;95500.06;;;3.15;71.57
6096;BME280;25081;42.698;23.298;2023-11-19T08:37:26;95506.81;;;3.14;71.55
6096;BME280;25081;42.698;23.298;2023-11-19T08:39:37;95511.91;;;3.24;71.02
6096;BME280;25081;42.698;23.298;2023-11-19T08:41:47;95517.34;;;3.22;71.22
6096;BME280;25081;42.698;23.298;2023-11-19T08:43:57;95530.02;;;3.23;71.22
6096;BME280;25081;42.698;23.298;2023-11-19T08:46:11;95524.90;;;3.33;70.82
6096;BME280;25081;42.698;23.298;2023-11-19T08:48:22;95512.52;;;3.46;70.85
6096;BME280;25081;42.698;23.298;2023-11-19T08:50:32;95509.58;;;3.96;68.62
6096;BME280;25081;42.698;23.298;2023-11-19T08:52:43;95512.36;;;3.99;68.75
6096;BME280;25081;42.698;23.298;2023-11-19T08:54:53;95507.78;;;3.85;68.50
6096;BME280;25081;42.698;23.298;2023-11-19T08:57:04;95511.74;;;3.85;68.53
6096;BME280;25081;42.698;23.298;2023-11-19T08:59:15;95525.39;;;3.92;67.95
6096;BME280;25081;42.698;23.298;2023-11-19T09:01:25;95521.81;;;3.81;68.16
6096;BME280;25081;42.698;23.298;2023-11-19T09:03:36;95526.31;;;3.68;69.02
6096;BME280;25081;42.698;23.298;2023-11-19T09:05:47;95507.19;;;3.66;68.98
6096;BME280;25081;42.698;23.298;2023-11-19T09:07:57;95492.63;;;3.83;68.45
6096;BME280;25081;42.698;23.298;2023-11-19T09:10:09;95502.19;;;3.88;68.57
6096;BME280;25081;42.698;23.298;2023-11-19T09:12:20;95499.99;;;3.99;68.77
6096;BME280;25081;42.698;23.298;2023-11-19T09:14:30;95502.46;;;3.58;68.90
6096;BME280;25081;42.698;23.298;2023-11-19T09:16:41;95502.48;;;3.50;69.57
6096;BME280;25081;42.698;23.298;2023-11-19T09:18:51;95491.73;;;3.55;69.21
6096;BME280;25081;42.698;23.298;2023-11-19T09:21:02;95499.16;;;3.60;69.15
6096;BME280;25081;42.698;23.298;2023-11-19T09:23:12;95506.27;;;3.43;69.32
6096;BME280;25081;42.698;23.298;2023-11-19T09:25:23;95512.82;;;3.55;69.16
6096;BME280;25081;42.698;23.298;2023-11-19T09:27:33;95512.52;;;3.50;69.15
6096;BME280;25081;42.698;23.298;2023-11-19T09:29:44;95502.09;;;3.65;68.91
6096;BME280;25081;42.698;23.298;2023-11-19T09:31:55;95517.09;;;3.68;69.28
6096;BME280;25081;42.698;23.298;2023-11-19T09:34:05;95518.58;;;3.67;69.05
6096;BME280;25081;42.698;23.298;2023-11-19T09:36:16;95495.52;;;3.57;69.25
6096;BME280;25081;42.698;23.298;2023-11-19T09:38:27;95491.02;;;3.78;69.23
6096;BME280;25081;42.698;23.298;2023-11-19T09:40:37;95492.58;;;3.95;68.72
6096;BME280;25081;42.698;23.298;2023-11-19T09:42:48;95482.49;;;3.63;68.82
6096;BME280;25081;42.698;23.298;2023-11-19T09:44:59;95483.20;;;3.49;68.98
6096;BME280;25081;42.698;23.298;2023-11-19T09:47:09;95485.30;;;3.62;68.83
6096;BME280;25081;42.698;23.298;2023-11-19T09:49:21;95470.92;;;3.77;68.00
6096;BME280;25081;42.698;23.298;2023-11-19T09:51:31;95456.05;;;3.84;67.92
6096;BME280;25081;42.698;23.298;2023-11-19T09:53:41;95444.02;;;4.12;67.19
6096;BME280;25081;42.698;23.298;2023-11-19T09:55:52;95429.09;;;3.69;68.03
6096;BME280;25081;42.698;23.298;2023-11-19T09:58:02;95447.41;;;3.67;68.11
6096;BME280;25081;42.698;23.298;2023-11-19T10:00:14;95440.64;;;3.64;68.01
6096;BME280;25081;42.698;23.298;2023-11-19T10:02:25;95447.31;;;3.87;67.36
6096;BME280;25081;42.698;23.298;2023-11-19T10:04:35;95438.11;;;3.79;67.85
6096;BME280;25081;42.698;23.298;2023-11-19T10:06:46;95437.86;;;3.97;67.18
6096;BME280;25081;42.698;23.298;2023-11-19T10:08:56;95428.95;;;3.94;67.07
6096;BME280;25081;42.698;23.298;2023-11-19T10:11:07;95425.23;;;4.11;67.53
6096;BME280;25081;42.698;23.298;2023-11-19T10:13:18;95428.70;;;4.12;67.67
6096;BME280;25081;42.698;23.298;2023-11-19T10:15:28;95427.02;;;4.19;67.04
6096;BME280;25081;42.698;23.298;2023-11-19T10:17:39;95426.55;;;4.38;66.65
6096;BME280;25081;42.698;23.298;2023-11-19T10:19:49;95426.09;;;4.53;65.48
6096;BME280;25081;42.698;23.298;2023-11-19T10:22:05;95445.89;;;4.35;65.58
6096;BME280;25081;42.698;23.298;2023-11-19T10:24:15;95444.20;;;4.60;65.46
6096;BME280;25081;42.698;23.298;2023-11-19T10:26:26;95447.67;;;4.80;64.92
6096;BME280;25081;42.698;23.298;2023-11-19T10:28:40;95449.16;;;4.59;65.72
6096;BME280;25081;42.698;23.298;2023-11-19T10:30:52;95438.39;;;4.65;65.60
6096;BME280;25081;42.698;23.298;2023-11-19T10:33:06;95429.05;;;4.36;66.71
6096;BME280;25081;42.698;23.298;2023-11-19T10:35:16;95419.22;;;4.48;66.43
6096;BME280;25081;42.698;23.298;2023-11-19T10:37:29;95417.02;;;4.56;65.51
6096;BME280;25081;42.698;23.298;2023-11-19T10:39:53;95420.25;;;4.81;65.43
6096;BME280;25081;42.698;23.298;2023-11-19T10:42:17;95425.77;;;4.75;64.99
6096;BME280;25081;42.698;23.298;2023-11-19T10:44:34;95432.38;;;4.94;64.35
6096;BME280;25081;42.698;23.298;2023-11-19T10:46:44;95430.36;;;4.96;63.67
6096;BME280;25081;42.698;23.298;2023-11-19T10:48:55;95426.66;;;5.50;62.46
6096;BME280;25081;42.698;23.298;2023-11-19T10:51:07;95421.19;;;6.06;62.14
6096;BME280;25081;42.698;23.298;2023-11-19T10:53:18;95422.38;;;6.18;60.07
6096;BME280;25081;42.698;23.298;2023-11-19T10:55:29;95428.23;;;6.35;59.61
6096;BME280;25081;42.698;23.298;2023-11-19T10:57:39;95419.84;;;6.74;58.28
6096;BME280;25081;42.698;23.298;2023-11-19T10:59:50;95417.52;;;6.43;58.59
6096;BME280;25081;42.698;23.298;2023-11-19T11:02:02;95410.06;;;6.75;58.63
6096;BME280;25081;42.698;23.298;2023-11-19T11:04:13;95409.86;;;7.26;57.62
6096;BME280;25081;42.698;23.298;2023-11-19T11:06:23;95403.56;;;7.51;56.49
6096;BME280;25081;42.698;23.298;2023-11-19T11:08:34;95386.06;;;7.39;56.31
6096;BME280;25081;42.698;23.298;2023-11-19T11:10:46;95375.66;;;7.55;55.97
6096;BME280;25081;42.698;23.298;2023-11-19T11:12:55;95373.45;;;7.71;55.09
6096;BME280;25081;42.698;23.298;2023-11-19T11:15:07;95372.39;;;6.90;57.19
6096;BME280;25081;42.698;23.298;2023-11-19T11:17:18;95378.36;;;6.60;58.74
6096;BME280;25081;42.698;23.298;2023-11-19T11:19:28;95374.83;;;5.99;59.39
6096;BME280;25081;42.698;23.298;2023-11-19T11:21:40;95377.83;;;5.96;60.34
6096;BME280;25081;42.698;23.298;2023-11-19T11:26:52;95379.73;;;5.88;59.79
6096;BME280;25081;42.698;23.298;2023-11-19T11:29:04;95376.53;;;6.60;59.54
6096;BME280;25081;42.698;23.298;2023-11-19T11:31:20;95373.00;;;5.85;59.04
6096;BME280;25081;42.698;23.298;2023-11-19T11:33:38;95375.37;;;5.95;59.89
6096;BME280;25081;42.698;23.298;2023-11-19T11:35:49;95368.47;;;5.79;59.38
6096;BME280;25081;42.698;23.298;2023-11-19T11:38:02;95383.31;;;5.95;59.61
6096;BME280;25081;42.698;23.298;2023-11-19T11:40:16;95376.14;;;5.85;59.99
6096;BME280;25081;42.698;23.298;2023-11-19T11:42:36;95361.89;;;5.75;60.23
6096;BME280;25081;42.698;23.298;2023-11-19T11:45:03;95363.17;;;5.79;60.44